M Y Odessa — ZCYV3 — position and weather

sailwx.info

Track history (hours):
 
Tides and Currents Weather Stations Pressure Air Temp Water Temp Dewpoint Dewpoint Depression Visibility Wind Speed Wind Dir Waves Ship Positions

M Y Odessa

Last reported at 2016-Jun-14 07:07 UTC. Time now 2016-Jun-26 19:08 UTC.
Position N 43°27' E 006°59'.
Warning: this ship's position is 12 days out of date.

Length 48 m; draft 2.4 m.

Type: Pleasure craft. MMSI: 319010700.

Date/timePositionNaut miles runAvg speedWind from/ knotsBaromVisibWave heightAir tempDewpointWater temp
2016-Jun-14 07:07N 43°27' E 006°59'6 3.7
2016-Jun-14 05:31N 43°31' E 007°04'0 0.0
2016-Jun-14 04:31N 43°31' E 007°04'0 0.0
2016-Jun-14 01:28N 43°31' E 007°04'0 0.0
2016-Jun-14 00:25N 43°31' E 007°04'0 0.0
2016-Jun-13 23:22N 43°31' E 007°04'0 0.0
2016-Jun-13 22:28N 43°31' E 007°04'0 0.0
2016-Jun-13 21:28N 43°31' E 007°04'0 0.0
2016-Jun-13 20:28N 43°31' E 007°04'0 0.0
2016-Jun-13 18:22N 43°31' E 007°04'0 0.0
2016-Jun-13 17:22N 43°31' E 007°04'0 0.0
2016-Jun-13 16:31N 43°31' E 007°04'0 0.0
2016-Jun-13 15:31N 43°31' E 007°04'0 0.0
2016-Jun-13 14:28N 43°31' E 007°04'0 0.0
2016-Jun-13 13:28N 43°31' E 007°04'0 0.0
2016-Jun-13 12:31N 43°31' E 007°04'0 0.0
2016-Jun-13 11:31N 43°31' E 007°04'0 0.0
2016-Jun-13 10:33N 43°31' E 007°04'8 7.5
2016-Jun-13 09:33N 43°35' E 007°13'9 0.3
2016-Jun-12 02:31N 43°42' E 007°21'0 0.0
2016-Jun-11 12:31N 43°42' E 007°21'3 2.7
2016-Jun-11 11:33N 43°41' E 007°17'1 1.1
2016-Jun-11 10:28N 43°42' E 007°17'0 0.0
2016-Jun-11 09:22N 43°42' E 007°17'0 0.0
2016-Jun-11 08:16N 43°42' E 007°17'0 0.0
2016-Jun-11 07:28N 43°42' E 007°17'0 0.0
2016-Jun-11 06:28N 43°42' E 007°17'0 0.0
2016-Jun-10 23:28N 43°42' E 007°17'0 0.0
2016-Jun-10 22:22N 43°42' E 007°17'0 0.0
2016-Jun-10 21:28N 43°42' E 007°17'0 0.0
2016-Jun-10 20:28N 43°42' E 007°17'0 0.0
2016-Jun-10 19:16N 43°42' E 007°17'0 0.0
2016-Jun-10 18:22N 43°42' E 007°17'0 0.0
2016-Jun-10 17:28N 43°42' E 007°17'0 0.0
2016-Jun-10 16:10N 43°42' E 007°17'0 0.0
2016-Jun-10 15:28N 43°42' E 007°17'0 0.0
2016-Jun-10 14:22N 43°42' E 007°17'0 0.0
2016-Jun-10 13:28N 43°42' E 007°17'0 0.2
2016-Jun-10 12:33N 43°42' E 007°17'3 3.2
2016-Jun-10 11:33N 43°41' E 007°21'1 0.6
2016-Jun-10 10:30N 43°41' E 007°21'0 0.0
2016-Jun-10 06:06N 43°41' E 007°21'0 0.0
2016-Jun-10 05:30N 43°41' E 007°21'0 0.0
2016-Jun-10 04:24N 43°41' E 007°21'0 0.0
2016-Jun-10 03:30N 43°41' E 007°21'0 0.0
2016-Jun-10 02:30N 43°41' E 007°21'0 0.0
2016-Jun-10 01:24N 43°41' E 007°21'0 0.0
2016-Jun-09 19:30N 43°41' E 007°21'0 0.0
2016-Jun-09 15:30N 43°41' E 007°21'0 0.0
2016-Jun-09 13:24N 43°41' E 007°21'0 0.0
2016-Jun-09 08:30N 43°41' E 007°21'0 0.0
2016-Jun-08 17:06N 43°41' E 007°21'0 0.0
2016-Jun-08 13:18N 43°41' E 007°21'0 0.0
2016-Jun-07 21:24N 43°41' E 007°21'0 0.0
2016-Jun-07 20:18N 43°41' E 007°21'0 0.0
2016-Jun-07 19:30N 43°41' E 007°21'0 0.0
2016-Jun-07 18:30N 43°41' E 007°21'0 0.0
2016-Jun-07 16:18N 43°41' E 007°21'0 0.0
2016-Jun-07 15:24N 43°41' E 007°21'0 0.0
2016-Jun-07 12:32N 43°41' E 007°21'  
2016-Jun-04 10:33N 43°41' E 007°18'1 1.4
2016-Jun-04 09:33N 43°42' E 007°19'0 0.0
2016-Jun-04 08:27N 43°42' E 007°19'0 0.0
2016-Jun-04 07:27N 43°42' E 007°19'  
Track history (hours):
 
Tides and Currents Weather Stations Pressure Air Temp Water Temp Dewpoint Dewpoint Depression Visibility Wind Speed Wind Dir Waves Ship Positions

M Y Odessa

Last reported at 2016-Jun-14 07:07 UTC. Time now 2016-Jun-26 19:08 UTC.
Position N 43°27' E 006°59'.
Warning: this ship's position is 12 days out of date.

Length 48 m; draft 2.4 m.

Type: Pleasure craft. MMSI: 319010700.

Date/timePositionNaut miles runAvg speedWind from/ knotsBaromVisibWave heightAir tempDewpointWater temp
2016-Jun-14 07:07N 43°27' E 006°59'6 3.7
2016-Jun-14 05:31N 43°31' E 007°04'0 0.0
2016-Jun-14 04:31N 43°31' E 007°04'0 0.0
2016-Jun-14 01:28N 43°31' E 007°04'0 0.0
2016-Jun-14 00:25N 43°31' E 007°04'0 0.0
2016-Jun-13 23:22N 43°31' E 007°04'0 0.0
2016-Jun-13 22:28N 43°31' E 007°04'0 0.0
2016-Jun-13 21:28N 43°31' E 007°04'0 0.0
2016-Jun-13 20:28N 43°31' E 007°04'0 0.0
2016-Jun-13 18:22N 43°31' E 007°04'0 0.0
2016-Jun-13 17:22N 43°31' E 007°04'0 0.0
2016-Jun-13 16:31N 43°31' E 007°04'0 0.0
2016-Jun-13 15:31N 43°31' E 007°04'0 0.0
2016-Jun-13 14:28N 43°31' E 007°04'0 0.0
2016-Jun-13 13:28N 43°31' E 007°04'0 0.0
2016-Jun-13 12:31N 43°31' E 007°04'0 0.0
2016-Jun-13 11:31N 43°31' E 007°04'0 0.0
2016-Jun-13 10:33N 43°31' E 007°04'8 7.5
2016-Jun-13 09:33N 43°35' E 007°13'9 0.3
2016-Jun-12 02:31N 43°42' E 007°21'0 0.0
2016-Jun-11 12:31N 43°42' E 007°21'3 2.7
2016-Jun-11 11:33N 43°41' E 007°17'1 1.1
2016-Jun-11 10:28N 43°42' E 007°17'0 0.0
2016-Jun-11 09:22N 43°42' E 007°17'0 0.0
2016-Jun-11 08:16N 43°42' E 007°17'0 0.0
2016-Jun-11 07:28N 43°42' E 007°17'0 0.0
2016-Jun-11 06:28N 43°42' E 007°17'0 0.0
2016-Jun-10 23:28N 43°42' E 007°17'0 0.0
2016-Jun-10 22:22N 43°42' E 007°17'0 0.0
2016-Jun-10 21:28N 43°42' E 007°17'0 0.0
2016-Jun-10 20:28N 43°42' E 007°17'0 0.0
2016-Jun-10 19:16N 43°42' E 007°17'0 0.0
2016-Jun-10 18:22N 43°42' E 007°17'0 0.0
2016-Jun-10 17:28N 43°42' E 007°17'0 0.0
2016-Jun-10 16:10N 43°42' E 007°17'0 0.0
2016-Jun-10 15:28N 43°42' E 007°17'0 0.0
2016-Jun-10 14:22N 43°42' E 007°17'0 0.0
2016-Jun-10 13:28N 43°42' E 007°17'0 0.2
2016-Jun-10 12:33N 43°42' E 007°17'3 3.2
2016-Jun-10 11:33N 43°41' E 007°21'1 0.6
2016-Jun-10 10:30N 43°41' E 007°21'0 0.0
2016-Jun-10 06:06N 43°41' E 007°21'0 0.0
2016-Jun-10 05:30N 43°41' E 007°21'0 0.0
2016-Jun-10 04:24N 43°41' E 007°21'0 0.0
2016-Jun-10 03:30N 43°41' E 007°21'0 0.0
2016-Jun-10 02:30N 43°41' E 007°21'0 0.0
2016-Jun-10 01:24N 43°41' E 007°21'0 0.0
2016-Jun-09 19:30N 43°41' E 007°21'0 0.0
2016-Jun-09 15:30N 43°41' E 007°21'0 0.0
2016-Jun-09 13:24N 43°41' E 007°21'0 0.0
2016-Jun-09 08:30N 43°41' E 007°21'0 0.0
2016-Jun-08 17:06N 43°41' E 007°21'0 0.0
2016-Jun-08 13:18N 43°41' E 007°21'0 0.0
2016-Jun-07 21:24N 43°41' E 007°21'0 0.0
2016-Jun-07 20:18N 43°41' E 007°21'0 0.0
2016-Jun-07 19:30N 43°41' E 007°21'0 0.0
2016-Jun-07 18:30N 43°41' E 007°21'0 0.0
2016-Jun-07 16:18N 43°41' E 007°21'0 0.0
2016-Jun-07 15:24N 43°41' E 007°21'0 0.0
2016-Jun-07 12:32N 43°41' E 007°21'  
2016-Jun-04 10:33N 43°41' E 007°18'1 1.4
2016-Jun-04 09:33N 43°42' E 007°19'0 0.0
2016-Jun-04 08:27N 43°42' E 007°19'0 0.0
2016-Jun-04 07:27N 43°42' E 007°19'  

Dump ship's entire track history